Time;durP1;ratioP1;P1;durP2;ratioP2;P2;SDS_P1;SDS_P2;PMS_P1;PMS_P2;Temp;Humidity;BMP_temperature;BMP_pressure;BME280_temperature;BME280_humidity;BME280_pressure;Samples;Min_cycle;Max_cycle;Signal;HPM_P1;HPM_P2
2021/12/23 00:00:13;;;;;;;19.23;12.40;;;;;;;0.19;77.67;99789.00;5110516;28;20036;-83
2021/12/23 00:02:39;;;;;;;19.05;11.65;;;;;;;0.21;77.83;99787.16;5095913;28;20043;-82
2021/12/23 00:05:10;;;;;;;19.63;11.38;;;;;;;0.15;77.93;99797.97;5111691;28;20039;-83
2021/12/23 00:07:35;;;;;;;16.65;10.80;;;;;;;0.12;78.34;99787.63;5128291;27;20039;-82
2021/12/23 00:10:08;;;;;;;17.10;10.93;;;;;;;0.21;78.43;99787.16;5110572;28;20794;-84
2021/12/23 00:12:36;;;;;;;16.90;11.23;;;;;;;0.22;78.02;99788.84;5096356;28;20036;-82
2021/12/23 00:15:03;;;;;;;15.93;10.75;;;;;;;0.14;77.83;99791.03;5093952;28;20059;-83
2021/12/23 00:25:15;;;;;;;20.63;13.07;;;;;;;0.07;78.10;99776.50;5111940;28;20104;-82
2021/12/23 00:27:40;;;;;;;21.40;13.77;;;;;;;0.06;78.14;99776.56;5095400;28;20099;-83
2021/12/23 00:30:06;;;;;;;19.10;13.00;;;;;;;0.00;77.92;99775.09;5094929;28;20039;-82
2021/12/23 00:32:32;;;;;;;18.65;12.40;;;;;;;0.09;78.72;99765.91;5110794;28;20036;-83
2021/12/23 00:34:57;;;;;;;18.92;11.52;;;;;;;0.12;78.22;99771.00;5110478;28;20080;-83
2021/12/23 00:37:22;;;;;;;19.33;11.63;;;;;;;-0.01;78.31;99770.72;5094515;28;20061;-83
2021/12/23 00:39:48;;;;;;;20.00;12.70;;;;;;;0.01;77.71;99750.50;5092784;28;20044;-83
2021/12/23 00:42:13;;;;;;;16.17;11.30;;;;;;;0.07;77.91;99737.06;5092131;28;20036;-83
2021/12/23 00:44:40;;;;;;;17.25;11.43;;;;;;;0.07;77.10;99731.81;5092306;28;20043;-83
2021/12/23 00:47:06;;;;;;;19.23;11.23;;;;;;;0.10;77.82;99728.16;5093321;28;20035;-82
2021/12/23 00:49:32;;;;;;;20.23;10.75;;;;;;;0.13;76.90;99715.72;5094326;28;20067;-82
2021/12/23 00:51:58;;;;;;;18.80;10.77;;;;;;;0.13;77.05;99720.97;5110713;28;20126;-81
2021/12/23 00:54:23;;;;;;;16.00;9.75;;;;;;;0.16;77.37;99723.44;5111460;28;20090;-83
2021/12/23 00:56:50;;;;;;;16.60;10.55;;;;;;;0.19;76.02;99718.03;5092055;28;20130;-82
2021/12/23 00:59:16;;;;;;;16.90;9.85;;;;;;;0.15;76.64;99726.16;5093897;28;20035;-82
2021/12/23 01:01:42;;;;;;;16.08;10.48;;;;;;;0.13;76.43;99720.13;5111829;28;20039;-82
2021/12/23 01:04:07;;;;;;;16.05;9.88;;;;;;;0.12;75.77;99716.66;5093452;28;20468;-82
2021/12/23 01:06:32;;;;;;;14.48;9.27;;;;;;;0.11;76.22;99714.94;5112259;28;20099;-82
2021/12/23 01:08:58;;;;;;;15.80;10.25;;;;;;;0.11;76.44;99740.38;5093870;28;20043;-82
2021/12/23 01:11:24;;;;;;;15.60;10.43;;;;;;;-0.01;76.25;99733.94;5112099;28;20079;-84
2021/12/23 01:14:02;;;;;;;14.88;9.98;;;;;;;0.04;76.56;99731.13;5091355;28;20051;-84
2021/12/23 01:16:49;;;;;;;16.17;10.05;;;;;;;-0.01;76.60;99737.41;5110871;28;20094;-83
2021/12/23 01:19:18;;;;;;;16.60;10.38;;;;;;;-0.11;76.65;99735.34;5111149;28;20028;-83
2021/12/23 01:21:44;;;;;;;16.08;10.75;;;;;;;-0.14;76.85;99728.44;5092160;28;20039;-83
2021/12/23 01:24:10;;;;;;;16.33;10.55;;;;;;;-0.09;77.40;99726.44;5093747;28;20042;-82
2021/12/23 01:26:37;;;;;;;17.02;10.60;;;;;;;-0.03;77.14;99712.16;5092872;28;20031;-84
2021/12/23 01:29:03;;;;;;;15.80;10.50;;;;;;;-0.02;76.21;99708.59;5090224;28;20066;-83
2021/12/23 01:31:29;;;;;;;15.60;10.25;;;;;;;0.02;76.65;99707.53;5092708;28;20028;-83
2021/12/23 01:33:55;;;;;;;17.15;10.35;;;;;;;0.01;76.91;99705.84;5109432;28;20028;-84
2021/12/23 01:36:22;;;;;;;16.15;9.45;;;;;;;0.03;76.62;99725.00;5109986;28;20032;-83
2021/12/23 01:38:48;;;;;;;17.02;10.15;;;;;;;0.09;76.64;99713.31;5093089;28;20070;-82
2021/12/23 01:41:13;;;;;;;15.63;9.85;;;;;;;0.10;76.26;99710.63;5091031;28;20035;-83
2021/12/23 01:43:39;;;;;;;17.55;10.15;;;;;;;0.11;76.79;99704.44;5110760;28;20040;-82
2021/12/23 01:46:04;;;;;;;17.17;10.07;;;;;;;0.02;76.24;99701.44;5110928;28;20035;-82
2021/12/23 01:48:29;;;;;;;16.67;10.32;;;;;;;0.08;77.06;99691.44;5111647;28;20059;-83
2021/12/23 01:50:55;;;;;;;16.80;10.25;;;;;;;0.05;76.40;99696.00;5093993;28;20039;-83
2021/12/23 01:53:20;;;;;;;15.18;9.90;;;;;;;0.03;76.25;99700.50;5110387;28;20039;-83
2021/12/23 01:55:46;;;;;;;15.68;9.95;;;;;;;0.08;76.63;99694.09;5110144;28;20044;-82
2021/12/23 01:58:13;;;;;;;13.50;9.48;;;;;;;0.09;76.78;99690.53;5111176;28;20039;-83
2021/12/23 02:00:43;;;;;;;16.30;9.88;;;;;;;0.12;77.30;99702.66;5109822;28;20044;-83
2021/12/23 02:03:09;;;;;;;15.82;10.10;;;;;;;0.10;76.38;99701.88;5093025;28;20050;-83
2021/12/23 02:05:35;;;;;;;18.13;10.10;;;;;;;0.09;76.69;99697.56;5109147;28;20111;-84
2021/12/23 02:08:01;;;;;;;16.20;10.13;;;;;;;0.09;77.02;99692.31;5109379;28;20044;-83
2021/12/23 02:10:28;;;;;;;14.73;10.18;;;;;;;0.08;76.58;99690.59;5091489;28;20024;-82
2021/12/23 02:12:53;;;;;;;16.58;10.05;;;;;;;0.09;76.56;99694.94;5111001;28;20032;-82
2021/12/23 02:15:19;;;;;;;15.80;10.85;;;;;;;0.11;76.41;99695.69;5109736;28;20043;-81
2021/12/23 02:17:46;;;;;;;17.85;11.35;;;;;;;0.14;76.77;99704.28;5109777;28;20113;-82
2021/12/23 02:20:20;;;;;;;17.58;10.43;;;;;;;0.12;76.82;99705.28;5109869;28;20096;-82
2021/12/23 02:22:46;;;;;;;15.30;10.07;;;;;;;0.09;77.08;99701.03;5108672;28;20039;-81
2021/12/23 02:25:13;;;;;;;16.42;10.43;;;;;;;0.08;77.42;99690.59;5092896;28;20084;-82
2021/12/23 02:27:39;;;;;;;14.13;10.27;;;;;;;0.20;77.60;99692.59;5091977;28;20111;-82
2021/12/23 02:30:08;;;;;;;15.35;9.93;;;;;;;0.17;77.43;99698.00;5093611;28;20025;-83
2021/12/23 02:32:35;;;;;;;16.13;9.75;;;;;;;0.17;77.04;99685.72;5092387;28;20031;-82
2021/12/23 02:35:00;;;;;;;16.42;10.50;;;;;;;0.06;77.79;99682.78;5091423;28;20478;-82
2021/12/23 02:37:26;;;;;;;16.27;10.20;;;;;;;0.11;77.69;99679.94;5093155;28;20050;-82
2021/12/23 02:39:51;;;;;;;15.60;10.18;;;;;;;0.08;77.29;99682.72;5109375;28;20042;-82
2021/12/23 02:42:16;;;;;;;16.13;10.55;;;;;;;0.04;77.56;99682.03;5092177;28;20039;-82
2021/12/23 02:44:42;;;;;;;16.45;10.75;;;;;;;0.06;77.52;99682.78;5109048;28;20036;-84
2021/12/23 02:47:07;;;;;;;16.50;10.77;;;;;;;0.07;77.20;99671.34;5092355;28;20050;-84
2021/12/23 02:49:33;;;;;;;12.98;9.82;;;;;;;0.09;77.85;99672.13;5093296;28;20035;-82
2021/12/23 02:51:59;;;;;;;15.93;10.30;;;;;;;0.08;77.11;99661.69;5091834;28;20557;-83
2021/12/23 02:54:24;;;;;;;16.38;10.48;;;;;;;0.07;77.65;99668.72;5091583;28;20162;-82
2021/12/23 02:56:49;;;;;;;19.10;10.73;;;;;;;0.11;77.72;99667.63;5108420;28;20039;-82
2021/12/23 02:59:15;;;;;;;16.58;10.68;;;;;;;0.12;77.74;99666.72;5094149;28;20043;-83
2021/12/23 03:01:40;;;;;;;15.57;10.27;;;;;;;0.11;77.36;99658.91;5108009;28;20032;-83
2021/12/23 03:04:05;;;;;;;14.90;10.27;;;;;;;0.10;77.30;99670.34;5092345;28;20032;-83
2021/12/23 03:06:31;;;;;;;16.58;11.13;;;;;;;0.11;77.58;99679.94;5109616;28;20096;-82
2021/12/23 03:08:59;;;;;;;16.63;10.80;;;;;;;0.10;77.86;99692.22;5090604;28;20036;-83
2021/12/23 03:11:27;;;;;;;15.57;10.65;;;;;;;0.01;77.13;99684.81;5089889;28;20036;-82
2021/12/23 03:13:52;;;;;;;14.60;10.00;;;;;;;-0.01;77.99;99676.13;5109504;28;20062;-81
2021/12/23 03:16:20;;;;;;;14.98;11.18;;;;;;;0.07;78.50;99676.63;5093641;28;20059;-83
2021/12/23 03:18:45;;;;;;;19.13;10.77;;;;;;;0.09;77.58;99669.50;5091671;28;20043;-82
2021/12/23 03:21:11;;;;;;;17.40;10.70;;;;;;;0.07;77.94;99660.84;5108882;28;20032;-83
2021/12/23 03:23:37;;;;;;;16.95;11.07;;;;;;;0.08;77.70;99651.19;5093986;28;20107;-82
2021/12/23 03:26:03;;;;;;;16.33;10.60;;;;;;;0.06;77.64;99638.13;5107964;28;20039;-82
2021/12/23 03:28:29;;;;;;;18.42;11.18;;;;;;;0.01;78.18;99629.63;5092458;28;20101;-82
2021/12/23 03:30:54;;;;;;;18.05;10.90;;;;;;;-0.01;78.37;99631.44;5090480;28;20036;-83
2021/12/23 03:33:20;;;;;;;19.05;10.77;;;;;;;0.03;78.07;99635.66;5092125;28;20032;-82
2021/12/23 03:35:46;;;;;;;17.10;10.77;;;;;;;0.09;78.49;99637.94;5093571;28;20032;-83
2021/12/23 03:38:12;;;;;;;16.67;10.68;;;;;;;0.13;78.10;99621.09;5093888;28;20043;-81
2021/12/23 03:40:38;;;;;;;18.48;11.02;;;;;;;0.10;77.76;99620.41;5095554;28;20073;-81
2021/12/23 03:43:06;;;;;;;17.88;10.30;;;;;;;0.08;78.20;99636.25;5094535;28;20031;-81
2021/12/23 03:45:31;;;;;;;17.13;10.43;;;;;;;0.09;77.68;99624.81;5110842;28;20032;-82
2021/12/23 03:47:57;;;;;;;16.90;10.88;;;;;;;0.10;77.98;99617.78;5094638;28;20036;-83
2021/12/23 03:50:23;;;;;;;17.60;10.65;;;;;;;0.12;78.19;99615.91;5113868;28;20036;-82
2021/12/23 03:52:51;;;;;;;15.75;9.73;;;;;;;0.11;78.52;99624.72;5095121;28;20104;-82
2021/12/23 03:55:16;;;;;;;18.02;10.80;;;;;;;0.09;78.48;99616.06;5094737;28;20071;-82
2021/12/23 03:57:42;;;;;;;16.58;10.35;;;;;;;0.09;78.29;99614.31;5094283;28;20036;-82
2021/12/23 04:00:11;;;;;;;15.57;10.00;;;;;;;0.16;78.49;99609.56;5113201;28;20095;-83
2021/12/23 04:02:37;;;;;;;17.67;10.50;;;;;;;0.16;78.03;99605.16;5111498;28;20061;-82
2021/12/23 04:05:06;;;;;;;17.63;10.50;;;;;;;0.12;78.37;99577.34;5094337;28;20036;-82
2021/12/23 04:07:31;;;;;;;;;;;;;;;0.11;78.53;99573.00;5096319;28;20035;-83
2021/12/23 04:09:56;;;;;;;20.00;10.15;;;;;;;0.08;78.89;99556.56;5094556;28;19937;-82
2021/12/23 04:12:22;;;;;;;14.32;9.35;;;;;;;0.05;78.76;99547.06;5095308;28;20043;-82
2021/12/23 04:14:47;;;;;;;17.08;9.75;;;;;;;0.08;78.59;99559.19;5095554;28;20051;-82
2021/12/23 04:17:13;;;;;;;17.27;10.20;;;;;;;0.11;78.30;99557.25;5093477;28;20073;-82
2021/12/23 04:19:38;;;;;;;14.50;9.50;;;;;;;0.11;78.67;99556.38;5093808;28;20038;-82
2021/12/23 04:22:03;;;;;;;14.50;9.68;;;;;;;0.17;78.68;99542.91;5093527;28;20497;-83
2021/12/23 04:24:29;;;;;;;13.90;9.35;;;;;;;0.10;78.53;99549.44;5094777;28;20185;-82
2021/12/23 04:26:54;;;;;;;17.15;10.02;;;;;;;0.16;78.39;99549.09;5093766;28;20036;-83
2021/12/23 04:29:19;;;;;;;14.60;9.93;;;;;;;0.14;78.40;99540.44;5095061;28;20048;-81
2021/12/23 04:31:45;;;;;;;12.93;9.13;;;;;;;0.15;78.43;99545.63;5094549;28;20035;-83
2021/12/23 04:34:10;;;;;;;13.48;9.65;;;;;;;0.16;78.44;99528.06;5095952;28;20036;-81
2021/12/23 04:36:36;;;;;;;13.48;9.23;;;;;;;0.10;78.28;99518.75;5094429;28;20040;-83
2021/12/23 04:39:03;;;;;;;14.25;9.60;;;;;;;0.10;78.20;99520.53;5094738;28;20651;-83
2021/12/23 04:41:28;;;;;;;17.20;9.93;;;;;;;0.12;77.73;99521.28;5111218;28;20080;-82
2021/12/23 04:43:54;;;;;;;14.98;10.07;;;;;;;-0.06;78.64;99525.72;5092314;28;20114;-82
2021/12/23 04:46:20;;;;;;;16.08;10.38;;;;;;;-0.03;78.34;99523.78;5111301;28;20073;-83
2021/12/23 04:48:47;;;;;;;14.63;10.10;;;;;;;-0.01;78.20;99516.66;5111667;28;20055;-83
2021/12/23 04:51:13;;;;;;;15.73;9.48;;;;;;;-0.03;78.34;99502.75;5110327;28;20043;-82
2021/12/23 04:53:38;;;;;;;14.35;9.73;;;;;;;0.01;78.15;99521.03;5111817;28;20063;-82
2021/12/23 04:56:04;;;;;;;16.75;10.48;;;;;;;0.02;78.79;99517.47;5110973;28;20077;-83
2021/12/23 04:58:30;;;;;;;13.23;9.77;;;;;;;-0.06;78.37;99526.59;5094908;28;20485;-82
2021/12/23 05:00:55;;;;;;;13.35;9.40;;;;;;;0.03;78.87;99524.41;5093393;28;20050;-83
2021/12/23 05:03:23;;;;;;;15.43;9.80;;;;;;;0.05;78.63;99517.31;5112861;28;20039;-83
2021/12/23 05:05:48;;;;;;;14.35;8.82;;;;;;;0.07;78.43;99511.03;5094347;28;20537;-83
2021/12/23 05:08:15;;;;;;;13.90;9.25;;;;;;;0.08;78.73;99517.13;5093812;28;20074;-83
2021/12/23 05:10:40;;;;;;;16.40;9.48;;;;;;;0.08;78.19;99519.75;5095447;28;20031;-83
2021/12/23 05:13:06;;;;;;;14.82;9.38;;;;;;;0.10;78.68;99513.50;5093014;28;20032;-83
2021/12/23 05:15:31;;;;;;;13.70;9.57;;;;;;;0.13;77.80;99501.97;5111443;28;20057;-81
2021/12/23 05:17:57;;;;;;;16.65;10.02;;;;;;;0.09;77.74;99490.78;5111046;28;20087;-82
2021/12/23 05:20:22;;;;;;;14.40;9.60;;;;;;;0.10;78.32;99489.00;5093345;28;20061;-83
2021/12/23 05:22:48;;;;;;;16.95;10.05;;;;;;;0.12;78.67;99487.97;5091556;28;20027;-82
2021/12/23 05:25:14;;;;;;;14.52;9.40;;;;;;;0.11;78.54;99481.00;5110160;28;20047;-83
2021/12/23 05:27:39;;;;;;;16.70;10.25;;;;;;;0.13;78.15;99491.44;5091628;28;20063;-81
2021/12/23 05:30:07;;;;;;;14.52;10.02;;;;;;;0.08;78.33;99478.56;5109219;28;20040;-81
2021/12/23 05:32:32;;;;;;;17.10;9.40;;;;;;;0.13;78.27;99478.31;5094126;28;20035;-82
2021/12/23 05:34:57;;;;;;;13.88;9.75;;;;;;;0.11;78.47;99478.38;5110537;28;20124;-82
2021/12/23 05:37:23;;;;;;;13.35;9.75;;;;;;;0.11;77.66;99470.50;5092572;28;20103;-83
2021/12/23 05:39:48;;;;;;;17.05;9.68;;;;;;;0.11;78.23;99474.91;5110642;28;20072;-81
2021/12/23 05:42:13;;;;;;;16.13;10.18;;;;;;;0.12;78.70;99472.19;5093009;28;20457;-82
2021/12/23 05:44:39;;;;;;;17.30;10.73;;;;;;;0.16;78.66;99478.13;5094153;28;20118;-83
2021/12/23 05:47:04;;;;;;;17.88;10.65;;;;;;;0.21;78.62;99470.84;5109163;28;20032;-83
2021/12/23 05:49:30;;;;;;;13.27;9.57;;;;;;;0.23;78.67;99461.94;5093183;28;20099;-81
2021/12/23 05:51:55;;;;;;;14.95;9.82;;;;;;;0.24;78.00;99454.91;5093111;28;20039;-82
2021/12/23 05:54:20;;;;;;;15.48;10.15;;;;;;;0.24;78.28;99463.63;5109236;28;20042;-83
2021/12/23 05:56:46;;;;;;;17.73;10.13;;;;;;;0.27;78.52;99449.47;5092196;28;20043;-83
2021/12/23 05:59:11;;;;;;;15.75;10.48;;;;;;;0.22;78.54;99447.09;5109804;28;20035;-83
2021/12/23 06:01:36;;;;;;;15.45;10.50;;;;;;;0.23;78.61;99437.44;5090856;28;21011;-83
2021/12/23 06:04:02;;;;;;;16.85;11.20;;;;;;;0.24;78.68;99442.59;5091335;28;20056;-82
2021/12/23 06:06:27;;;;;;;19.55;10.80;;;;;;;0.24;78.76;99439.97;5090986;28;20147;-82
2021/12/23 06:08:53;;;;;;;18.27;11.73;;;;;;;0.27;78.89;99438.94;5092763;28;20538;-83
2021/12/23 06:11:18;;;;;;;15.50;10.40;;;;;;;0.22;78.98;99430.47;5110328;28;20040;-82
2021/12/23 06:13:43;;;;;;;16.45;10.45;;;;;;;0.26;79.26;99432.00;5093486;28;20389;-82
2021/12/23 06:16:09;;;;;;;16.73;10.48;;;;;;;0.20;79.16;99425.31;5110087;28;20046;-83
2021/12/23 06:18:34;;;;;;;18.48;10.35;;;;;;;0.17;79.32;99428.09;5091966;28;20062;-82
2021/12/23 06:21:00;;;;;;;15.73;10.70;;;;;;;0.23;79.94;99417.25;5092369;28;20039;-83
2021/12/23 06:23:26;;;;;;;16.60;10.68;;;;;;;0.30;79.24;99412.47;5092990;28;20096;-82
2021/12/23 06:25:52;;;;;;;15.07;9.73;;;;;;;0.33;79.34;99414.94;5109670;28;20039;-83
2021/12/23 06:28:17;;;;;;;17.75;10.88;;;;;;;0.31;79.98;99419.44;5091706;28;20042;-84
2021/12/23 06:30:43;;;;;;;14.77;10.00;;;;;;;0.34;79.72;99413.16;5108930;28;20028;-82
2021/12/23 06:33:08;;;;;;;17.58;10.52;;;;;;;0.32;79.60;99406.19;5092885;28;20032;-83
2021/12/23 06:35:33;;;;;;;16.83;10.82;;;;;;;0.36;80.03;99409.50;5109198;28;20035;-83
2021/12/23 06:38:05;;;;;;;18.42;10.70;;;;;;;0.31;79.90;99394.00;5108789;28;20089;-83
2021/12/23 06:40:30;;;;;;;14.45;10.48;;;;;;;0.41;79.33;99401.34;5107172;28;20046;-83
2021/12/23 06:42:56;;;;;;;19.20;11.45;;;;;;;0.46;78.89;99410.66;5093128;28;20040;-82
2021/12/23 06:45:21;;;;;;;16.42;11.52;;;;;;;0.44;79.41;99415.16;5094037;28;20031;-83
2021/12/23 06:47:46;;;;;;;15.43;9.40;;;;;;;0.55;78.10;99406.69;5110480;28;20051;-83
2021/12/23 06:50:13;;;;;;;18.27;10.60;;;;;;;0.61;77.47;99403.69;5091128;28;20031;-83
2021/12/23 06:52:39;;;;;;;16.25;9.43;;;;;;;0.75;76.48;99413.41;5092226;28;20051;-82
2021/12/23 06:55:07;;;;;;;17.77;9.40;;;;;;;0.78;75.79;99419.34;5092912;28;20044;-84
2021/12/23 06:57:32;;;;;;;16.67;9.05;;;;;;;0.83;74.74;99409.38;5107146;28;20097;-82
2021/12/23 06:59:58;;;;;;;15.75;8.68;;;;;;;0.83;74.69;99411.16;5104008;28;20138;-83
2021/12/23 07:02:25;;;;;;;17.80;9.60;;;;;;;0.80;75.04;99409.56;5106996;28;20036;-83
2021/12/23 07:04:50;;;;;;;14.85;8.48;;;;;;;0.92;74.18;99415.88;5109335;28;20119;-82
2021/12/23 07:07:26;;;;;;;19.40;9.35;;;;;;;0.96;73.46;99414.78;5092754;28;20071;-84
2021/12/23 07:09:53;;;;;;;14.45;9.05;;;;;;;0.99;73.40;99413.78;5110151;28;20042;-83
2021/12/23 07:12:18;;;;;;;14.35;8.88;;;;;;;0.99;73.24;99409.34;5110312;28;20099;-83
2021/12/23 07:15:03;;;;;;;;;;;;;;;;;;;;;
2021/12/23 07:17:42;;;;;;;14.38;9.18;;;;;;;1.06;72.66;99400.16;5109220;28;20126;-84
2021/12/23 07:20:39;;;;;;;14.10;8.80;;;;;;;1.11;71.50;99402.50;5088838;28;20046;-83
2021/12/23 07:23:35;;;;;;;;;;;;;;;;;;;;;
2021/12/23 07:26:07;;;;;;;14.52;7.95;;;;;;;1.26;70.96;99391.03;5109864;28;20552;-84
2021/12/23 07:28:56;;;;;;;15.30;8.60;;;;;;;1.30;70.16;99384.63;5090015;28;20039;-83
2021/12/23 07:31:21;;;;;;;14.30;8.00;;;;;;;1.28;69.99;99391.78;5111528;28;20062;-83
2021/12/23 07:33:47;;;;;;;14.18;8.43;;;;;;;1.31;70.07;99394.22;5111750;28;20032;-83
2021/12/23 07:36:12;;;;;;;13.88;8.32;;;;;;;1.34;69.75;99386.13;5109117;28;20040;-84
2021/12/23 07:38:37;;;;;;;14.73;8.38;;;;;;;1.33;69.64;99388.88;5091967;28;20039;-84
2021/12/23 07:41:03;;;;;;;14.63;8.75;;;;;;;1.33;69.53;99405.50;5092046;28;20035;-83
2021/12/23 07:43:43;;;;;;;13.80;8.38;;;;;;;1.40;69.53;99404.19;5095400;28;20700;-83
2021/12/23 07:46:09;;;;;;;14.40;8.02;;;;;;;1.40;69.69;99406.84;5095347;28;20070;-85
2021/12/23 07:48:34;;;;;;;13.55;7.82;;;;;;;1.41;70.22;99398.00;5093921;28;20036;-85
2021/12/23 07:51:01;;;;;;;15.02;8.50;;;;;;;1.46;70.20;99417.03;5094864;28;20956;-85
2021/12/23 07:53:27;;;;;;;14.27;8.40;;;;;;;1.47;69.84;99404.69;5095819;28;20120;-84
2021/12/23 07:55:52;;;;;;;15.18;8.77;;;;;;;1.47;70.67;99407.34;5095837;28;20047;-84
2021/12/23 07:58:19;;;;;;;17.20;9.00;;;;;;;1.47;70.70;99394.16;5092166;28;20046;-86
2021/12/23 08:00:44;;;;;;;17.35;8.45;;;;;;;1.43;70.39;99392.66;5092116;28;20043;-86
2021/12/23 08:03:10;;;;;;;13.68;7.90;;;;;;;1.43;71.20;99401.41;5095113;28;20027;-85
2021/12/23 08:05:35;;;;;;;13.43;8.07;;;;;;;1.46;71.61;99397.75;5093756;28;20048;-85
2021/12/23 08:08:02;;;;;;;12.43;7.55;;;;;;;1.50;71.81;99394.81;5092787;28;20058;-85
2021/12/23 08:10:27;;;;;;;16.00;8.23;;;;;;;1.50;72.11;99388.69;5095198;28;20039;-86
2021/12/23 08:12:53;;;;;;;13.75;7.90;;;;;;;1.59;72.66;99393.41;5094026;28;20032;-85
2021/12/23 08:15:19;;;;;;;13.95;7.95;;;;;;;1.66;72.55;99396.50;5096079;28;20036;-85
2021/12/23 08:17:44;;;;;;;15.00;7.63;;;;;;;1.69;73.12;99393.66;5094160;28;20040;-85
2021/12/23 08:20:13;;;;;;;14.02;7.85;;;;;;;1.65;72.57;99392.16;5093394;28;20027;-85
2021/12/23 08:22:39;;;;;;;14.73;7.50;;;;;;;1.66;73.00;99386.78;5095322;28;20063;-86
2021/12/23 08:25:09;;;;;;;12.25;7.53;;;;;;;1.70;73.32;99385.66;5113616;28;20039;-85
2021/12/23 08:27:35;;;;;;;12.57;7.50;;;;;;;1.72;73.88;99383.78;5078547;28;20028;-86
2021/12/23 08:30:03;;;;;;;13.02;7.85;;;;;;;1.73;73.41;99379.34;5094389;28;20061;-86
2021/12/23 08:32:28;;;;;;;15.52;7.85;;;;;;;1.72;73.88;99377.66;5093739;28;20039;-86
2021/12/23 08:35:02;;;;;;;13.43;8.60;;;;;;;1.70;73.90;99387.44;5094608;28;20035;-86
2021/12/23 08:37:28;;;;;;;13.60;8.90;;;;;;;1.69;74.41;99380.50;5107796;28;20043;-84
2021/12/23 08:39:54;;;;;;;15.25;8.90;;;;;;;1.70;74.75;99380.38;5091406;28;20036;-81
2021/12/23 08:42:21;;;;;;;13.05;7.70;;;;;;;1.69;74.53;99377.84;5109624;28;20091;-81
2021/12/23 08:44:46;;;;;;;12.70;7.95;;;;;;;1.70;75.40;99384.81;5111958;28;20068;-81
2021/12/23 08:47:13;;;;;;;11.52;7.43;;;;;;;1.71;75.15;99381.22;5091369;28;20040;-80
2021/12/23 08:49:43;;;;;;;12.00;7.05;;;;;;;1.73;75.65;99372.28;5092420;28;20572;-82
2021/12/23 08:52:11;;;;;;;12.95;6.93;;;;;;;1.77;74.98;99373.78;5109316;28;20099;-82
2021/12/23 08:54:37;;;;;;;13.23;7.28;;;;;;;1.78;75.54;99374.63;5108527;28;20057;-82
2021/12/23 08:57:04;;;;;;;13.18;7.40;;;;;;;1.80;76.04;99367.47;5108394;28;20035;-82
2021/12/23 08:59:32;;;;;;;11.43;6.80;;;;;;;1.79;75.55;99371.91;5108402;28;20044;-85
2021/12/23 09:01:59;;;;;;;14.43;7.32;;;;;;;1.82;75.89;99376.13;5088635;28;20103;-80
2021/12/23 09:04:24;;;;;;;12.30;6.75;;;;;;;1.82;76.59;99370.84;5094272;28;20427;-82
2021/12/23 09:06:50;;;;;;;13.93;7.30;;;;;;;1.85;76.59;99362.75;5093029;28;20032;-82
2021/12/23 09:09:16;;;;;;;10.57;6.72;;;;;;;1.86;76.62;99354.75;5092890;28;20039;-81
2021/12/23 09:11:41;;;;;;;14.02;9.48;;;;;;;1.87;76.79;99347.69;5109917;28;20086;-80
2021/12/23 09:14:09;;;;;;;15.70;10.05;;;;;;;1.91;77.37;99343.94;5111434;28;20059;-82
2021/12/23 09:16:34;;;;;;;13.38;8.38;;;;;;;1.88;77.22;99344.09;5111055;28;20038;-85
2021/12/23 09:18:59;;;;;;;13.50;8.25;;;;;;;1.83;77.03;99336.50;5109104;28;20040;-81
2021/12/23 09:21:25;;;;;;;12.18;7.57;;;;;;;1.85;77.66;99334.59;5092054;28;20036;-80
2021/12/23 09:23:50;;;;;;;12.48;7.18;;;;;;;1.93;77.68;99336.78;5093596;28;20028;-81
2021/12/23 09:26:15;;;;;;;10.77;6.80;;;;;;;1.93;77.66;99341.19;5110033;28;20042;-84
2021/12/23 09:34:13;;;;;;;10.73;6.82;;;;;;;1.99;78.44;99328.47;5076870;28;20128;-81
2021/12/23 09:36:39;;;;;;;10.57;6.93;;;;;;;2.00;78.17;99321.41;5091801;28;20095;-82
2021/12/23 09:39:06;;;;;;;12.70;6.70;;;;;;;2.00;78.31;99316.13;5109530;28;20047;-79
2021/12/23 09:41:32;;;;;;;10.45;6.20;;;;;;;2.05;78.88;99324.59;5092673;28;20043;-81
2021/12/23 09:43:59;;;;;;;11.18;6.47;;;;;;;2.10;78.32;99318.06;5109076;28;20072;-80
2021/12/23 09:46:25;;;;;;;12.68;6.90;;;;;;;2.08;78.60;99329.66;5092792;28;20134;-82
2021/12/23 09:48:50;;;;;;;12.55;6.55;;;;;;;2.10;78.89;99331.25;5111401;28;20070;-80
2021/12/23 09:51:18;;;;;;;10.85;6.85;;;;;;;2.06;79.04;99329.75;5091498;28;20061;-80
2021/12/23 09:53:45;;;;;;;11.48;6.30;;;;;;;2.07;79.03;99330.59;5092393;28;20102;-79
2021/12/23 09:56:11;;;;;;;10.27;6.60;;;;;;;2.12;79.68;99334.63;5109000;28;20189;-82
2021/12/23 09:58:36;;;;;;;11.38;7.00;;;;;;;2.12;79.68;99333.78;5110939;28;20101;-83
2021/12/23 10:01:04;;;;;;;13.93;7.22;;;;;;;2.20;80.07;99336.75;5093416;28;20036;-81
2021/12/23 10:03:29;;;;;;;13.52;7.20;;;;;;;2.23;80.51;99339.19;5093733;28;20036;-80
2021/12/23 10:05:56;;;;;;;10.45;7.18;;;;;;;2.25;80.25;99337.31;5108931;28;20032;-80
2021/12/23 10:08:22;;;;;;;12.70;6.72;;;;;;;2.21;80.57;99339.28;5110110;28;20062;-84
2021/12/23 10:10:53;;;;;;;12.88;7.65;;;;;;;2.19;81.19;99340.34;5091515;28;20474;-84
2021/12/23 10:38:14;;;;;;;13.40;8.45;;;;;;;2.32;83.36;99272.63;5109305;28;20039;-79
2021/12/23 10:40:48;;;;;;;13.98;7.72;;;;;;;2.39;83.94;99273.94;5107914;28;20039;-81
2021/12/23 10:43:32;;;;;;;14.30;8.98;;;;;;;2.44;84.03;99263.06;5092181;28;20070;-81
2021/12/23 10:46:03;;;;;;;12.30;8.02;;;;;;;2.55;84.68;99267.63;5111267;28;20027;-81
2021/12/23 10:48:31;;;;;;;13.95;7.68;;;;;;;2.59;84.76;99251.47;5110013;28;20058;-81
2021/12/23 10:51:06;;;;;;;14.27;8.10;;;;;;;2.71;85.54;99247.97;5110333;28;20024;-81
2021/12/23 10:53:48;;;;;;;13.23;7.90;;;;;;;2.70;85.53;99238.38;5111314;27;20044;-82
2021/12/23 11:02:23;;;;;;;13.65;8.40;;;;;;;2.79;86.06;99240.38;5111406;28;20047;-83
2021/12/23 11:07:46;;;;;;;14.43;8.85;;;;;;;2.75;86.58;99236.25;5112863;28;20039;-81
2021/12/23 11:10:34;;;;;;;13.05;7.93;;;;;;;2.79;87.16;99234.25;5095304;28;20087;-85
2021/12/23 11:31:08;;;;;;;15.70;9.55;;;;;;;2.83;88.41;99175.84;5111706;28;20074;-84
2021/12/23 11:36:18;;;;;;;15.98;9.15;;;;;;;2.87;88.63;99183.59;5113194;28;20121;-83
2021/12/23 11:41:31;;;;;;;15.63;8.70;;;;;;;2.94;88.91;99184.84;5109610;28;20027;-82
2021/12/23 11:44:01;;;;;;;14.07;8.93;;;;;;;3.00;88.97;99172.03;5110739;28;20080;-83
2021/12/23 11:46:40;;;;;;;15.63;9.38;;;;;;;2.98;89.17;99186.31;5095398;28;20059;-83
2021/12/23 11:49:09;;;;;;;16.63;9.18;;;;;;;3.05;89.73;99172.53;5094631;28;20031;-83
2021/12/23 11:54:06;;;;;;;15.25;9.13;;;;;;;2.97;90.08;99150.28;5111511;28;20048;-82
2021/12/23 11:56:53;;;;;;;15.75;9.15;;;;;;;2.96;90.21;99144.16;5092631;28;20078;-81
2021/12/23 11:59:33;;;;;;;17.17;9.07;;;;;;;3.00;90.10;99135.06;5090529;28;20030;-84
2021/12/23 12:02:00;;;;;;;16.30;10.05;;;;;;;3.03;89.83;99128.72;5107237;28;20101;-82
2021/12/23 12:04:35;;;;;;;17.77;10.02;;;;;;;3.09;90.40;99133.56;5090641;28;20323;-84
2021/12/23 12:07:12;;;;;;;16.05;9.20;;;;;;;3.13;90.66;99129.72;5093141;28;20092;-81
2021/12/23 12:10:06;;;;;;;15.35;9.40;;;;;;;3.13;90.58;99127.09;5108537;28;20039;-85
2021/12/23 12:13:00;;;;;;;17.50;10.05;;;;;;;3.20;90.46;99117.75;5100797;28;20051;-84
2021/12/23 12:15:48;;;;;;;16.45;9.35;;;;;;;3.27;90.90;99113.72;5094363;28;20755;-85
2021/12/23 12:18:19;;;;;;;15.98;9.77;;;;;;;3.22;90.98;99115.84;5086618;28;20047;-82
2021/12/23 12:20:53;;;;;;;14.68;9.20;;;;;;;3.27;91.00;99110.22;5109847;28;20040;-84
2021/12/23 12:23:23;;;;;;;15.25;9.27;;;;;;;3.24;90.88;99110.44;5109333;28;20062;-81
2021/12/23 12:26:03;;;;;;;17.17;9.50;;;;;;;3.31;91.19;99109.03;5106242;28;20043;-85
2021/12/23 12:28:30;;;;;;;15.98;9.77;;;;;;;3.36;91.26;99101.66;5090783;28;20059;-87
2021/12/23 12:31:10;;;;;;;15.77;9.38;;;;;;;3.34;91.32;99091.19;5094509;28;20033;-84
2021/12/23 12:33:44;;;;;;;15.52;9.63;;;;;;;3.35;91.50;99082.31;5108621;28;20043;-85
2021/12/23 12:36:14;;;;;;;16.30;9.50;;;;;;;3.29;91.67;99082.75;5109430;28;20119;-86
2021/12/23 12:38:52;;;;;;;15.63;9.13;;;;;;;3.24;91.45;99076.94;5078929;28;20040;-86
2021/12/23 12:41:24;;;;;;;13.10;8.98;;;;;;;3.20;91.45;99082.56;5093401;28;20138;-85
2021/12/23 12:43:58;;;;;;;15.80;9.55;;;;;;;3.19;91.75;99079.09;5110467;28;20134;-84
2021/12/23 12:46:45;;;;;;;15.35;9.82;;;;;;;3.12;92.13;99069.94;5111831;28;20040;-85